This is the latest recevied weather packets stored in our database for station/object OE7SBH-WX. If no packets are shown the sender has not sent any weather packets the latest 10 day(s).
| Time | Temp. | Humidity | Pressure | Rain* | Wind** | Luminosity | Snow |
|---|---|---|---|---|---|---|---|
| 1777781123 | 7.78° C | 80% | 1023.6 hPa | 0 mm | - | 4 W/m² | - |
| 1777776333 | 8.89° C | 74% | 1023.5 hPa | 0 mm | - | 0 W/m² | - |
| 1777773353 | 9.44° C | 70% | 1023.5 hPa | 0 mm | - | 0 W/m² | - |
| 1777770918 | 10.56° C | 65% | 1023.6 hPa | 0 mm | - | 0 W/m² | - |
| 1777769133 | 10.56° C | 65% | 1023.6 hPa | 0 mm | - | 0 W/m² | - |
| 1777761933 | 13.89° C | 54% | 1024.3 hPa | 0 mm | - | 0 W/m² | - |
| 1777759533 | 13.89° C | 53% | 1024.1 hPa | 0 mm | - | 0 W/m² | - |
| 1777757133 | 14.44° C | 54% | 1024.1 hPa | 0 mm | - | 0 W/m² | - |
| 1777749933 | 17.22° C | 47% | 1023.4 hPa | 0 mm | - | 0 W/m² | - |
| 1777748731 | 17.78° C | 47% | 1023 hPa | 0 mm | - | 0 W/m² | - |
| 1777747527 | 18.33° C | 46% | 1022.8 hPa | 0 mm | - | 0 W/m² | - |
| 1777746934 | 19.44° C | 43% | 1022.6 hPa | 0 mm | - | 1 W/m² | - |
| 1777737333 | 25° C | 25% | 1022.2 hPa | 0 mm | - | 139 W/m² | - |
| 1777734322 | 26.11° C | 22% | 1022.8 hPa | 0 mm | - | 333 W/m² | - |
| 1777727716 | 26.11° C | 24% | 1024.3 hPa | 0 mm | - | 570 W/m² | - |
| 1777722916 | 24.44° C | 32% | 1025.6 hPa | 0 mm | - | 660 W/m² | - |
| 1777722330 | 25° C | 31% | 1025.8 hPa | 0 mm | - | 665 W/m² | - |
| 1777720532 | 22.78° C | 31% | 1026.4 hPa | 0 mm | - | 674 W/m² | - |
| 1777716920 | 21.11° C | 38% | 1027.7 hPa | 0 mm | - | 651 W/m² | - |
| 1777713333 | 17.78° C | 41% | 1028.6 hPa | 0 mm | - | 582 W/m² | - |
| 1777709720 | 15.56° C | 48% | 1029.5 hPa | 0 mm | - | 469 W/m² | - |
| 1777709134 | 16.11° C | 48% | 1029.7 hPa | 0 mm | - | 446 W/m² | - |
| 1777707338 | 12.22° C | 60% | 1030.2 hPa | 0 mm | - | 378 W/m² | - |
| 1777704933 | 10.56° C | 67% | 1030.6 hPa | 0 mm | - | 279 W/m² | - |
| 1777704333 | 10° C | 72% | 1030.8 hPa | 0 mm | - | 255 W/m² | - |
* Rain latest hour (hover to see other rain measurements)
** Current wind speed in m/s (hover to see current wind gust speed)